Logan Cache Airport
KLGU : now visible

Airfield :











YOU CAN JOIN US ON...

 
LOGIN :

Register | Disclaimer

   EN    FR    IT 

 









Legend :    VFR   Marginal VFR   IFR   Intensive IFR   Very Intensive IFR
Visi :
Ceiling :
>= 8 km
>= 3000ft
5 to 8 km
1000 to 3000 ft
1500m to 5 km
500 to 1000 ft
800 to 1500m
200 to 500 ft
< 800m
< 200 ft
Symbols :   Thunderstorms  Fog  Heavy snow  Heavy precipitations  Wind > 20 kt






- Airport Elevation : 4457 ft


KLGU - Logan Cache

CURRENT METAR :
  • 262351Z AUTO 00000KT 4SM HZ BKN075 OVC090 04/00 A3000 RMK AO2 SLP162 T00440000 10050 20017 56015

EXPIRED METARs :
  • 262251Z AUTO 00000KT 3SM HZ BKN070 OVC080 04/00 A3001 RMK AO2 SLP170 T00390000
  • 262151Z AUTO 00000KT 3SM HZ SCT046 OVC085 03/00 A3003 RMK AO2 SLP174 T00330000
  • 262138Z AUTO 25007KT 2 1/2SM HZ SCT048 SCT060 OVC080 03/M01 A3004 RMK AO2 T00281006
  • 262123Z AUTO 32005KT 3SM HZ FEW037 BKN050 OVC080 03/00 A3004 RMK AO2 T00330000

TAF KLGU
Valid from the 27 at 00:00 until the 28 at 00:00 UTC


262324Z 2700/2724 VRB04KT 3SM BR VCSH SCT030 BKN060
FM270400 VRB04KT 1SM -SN BR SCT007 BKN015
FM270800 33008KT P6SM VCSH SCT020 BKN040
FM271900 VRB04KT P6SM SCT040 BKN080



MET'MAP, your aeronautical weather chart ! - Copyright ORBIFLY December 2007 - Disclaimer

ORBIFLY MET'MAP TEAM :

Programming & Development : Alexandra Zaïnal
Concept & original design : Baudouin d'Aumeries
Assistance for programming : Marc-Olivier Méhu
Technical & hardware support : Manuel Goepfert

Contact : metmap@orbifly.com




SOURCES & CREDITS :

   NOAA       Earth
Advisory